Time;durP1;ratioP1;P1;durP2;ratioP2;P2;SDS_P1;SDS_P2;PMS_P1;PMS_P2;Temp;Humidity;BMP_temperature;BMP_pressure;BME280_temperature;BME280_humidity;BME280_pressure;Samples;Min_cycle;Max_cycle;Signal;HPM_P1;HPM_P2
2023/01/04 00:02:04;;;;;;;6.77;2.63;;;6.80;99.90;;;;;;5083020;28;20238;-84
2023/01/04 00:04:31;;;;;;;3.73;2.60;;;7.00;99.90;;;;;;5080412;28;20195;-84
2023/01/04 00:06:59;;;;;;;5.67;2.80;;;6.90;99.90;;;;;;5063519;28;20262;-84
2023/01/04 00:09:26;;;;;;;7.23;3.13;;;6.90;99.90;;;;;;5074543;28;20290;-84
2023/01/04 00:11:53;;;;;;;6.20;2.60;;;6.80;99.90;;;;;;5081908;28;20284;-84
2023/01/04 00:14:19;;;;;;;4.87;2.70;;;6.90;99.90;;;;;;5075656;28;20213;-83
2023/01/04 00:16:46;;;;;;;4.60;2.70;;;7.00;99.90;;;;;;5076848;28;20284;-84
2023/01/04 00:19:13;;;;;;;6.73;2.70;;;6.80;99.90;;;;;;5083614;28;20733;-84
2023/01/04 00:21:40;;;;;;;7.03;3.00;;;6.80;99.90;;;;;;5066940;28;20706;-84
2023/01/04 00:24:10;;;;;;;7.23;3.00;;;7.00;99.90;;;;;;5084956;28;20215;-84
2023/01/04 00:26:37;;;;;;;5.30;2.40;;;6.90;99.90;;;;;;5089946;28;20651;-84
2023/01/04 00:29:06;;;;;;;6.60;2.90;;;6.90;99.90;;;;;;5083858;28;20236;-83
2023/01/04 00:31:34;;;;;;;4.57;2.63;;;6.90;99.90;;;;;;5083633;28;20217;-84
2023/01/04 00:34:03;;;;;;;6.73;3.20;;;6.80;99.90;;;;;;5076800;28;20213;-84
2023/01/04 00:36:31;;;;;;;6.93;3.07;;;6.90;99.90;;;;;;5068157;28;20213;-84
2023/01/04 00:39:08;;;;;;;6.67;2.70;;;6.90;99.90;;;;;;5068507;28;20324;-84
2023/01/04 00:41:38;;;;;;;6.10;2.90;;;7.00;99.90;;;;;;5078966;28;20210;-84
2023/01/04 00:44:06;;;;;;;6.90;2.80;;;6.90;99.90;;;;;;5063855;28;20217;-84
2023/01/04 00:46:34;;;;;;;5.20;2.63;;;6.80;99.90;;;;;;5069291;28;20217;-84
2023/01/04 00:49:02;;;;;;;6.80;2.80;;;6.70;99.90;;;;;;5074726;28;20236;-84
2023/01/04 00:51:30;;;;;;;7.33;2.90;;;6.60;99.90;;;;;;5074476;28;20307;-85
2023/01/04 00:53:56;;;;;;;10.10;3.13;;;6.60;99.90;;;;;;5062238;28;20596;-84
2023/01/04 00:56:23;;;;;;;5.70;3.00;;;6.70;99.90;;;;;;5064920;28;20202;-84
2023/01/04 00:58:54;;;;;;;8.80;3.57;;;6.80;99.90;;;;;;5082416;28;20558;-84
2023/01/04 01:01:21;;;;;;;9.97;4.07;;;6.70;99.90;;;;;;5083428;28;20198;-84
2023/01/04 01:03:47;;;;;;;8.00;3.30;;;6.70;99.90;;;;;;5081601;28;20691;-84
2023/01/04 01:06:14;;;;;;;9.40;3.10;;;6.70;99.90;;;;;;5081276;28;20216;-84
2023/01/04 01:08:41;;;;;;;10.53;4.60;;;6.60;99.90;;;;;;5080045;28;20213;-84
2023/01/04 01:11:09;;;;;;;5.67;3.37;;;6.50;99.90;;;;;;5081377;28;20230;-84
2023/01/04 01:13:39;;;;;;;7.63;3.63;;;6.40;99.90;;;;;;5082124;28;20237;-84
2023/01/04 01:16:10;;;;;;;9.50;3.67;;;6.60;99.90;;;;;;5082022;28;20631;-84
2023/01/04 01:18:39;;;;;;;7.23;3.10;;;6.70;99.90;;;;;;5079391;28;20212;-84
2023/01/04 01:21:06;;;;;;;5.07;2.73;;;6.70;99.90;;;;;;5077864;28;20658;-84
2023/01/04 01:23:34;;;;;;;7.47;3.00;;;6.60;99.90;;;;;;5082403;28;20277;-84
2023/01/04 01:26:01;;;;;;;8.07;2.70;;;6.80;99.90;;;;;;5072605;28;20214;-84
2023/01/04 01:28:29;;;;;;;5.23;2.77;;;6.80;99.90;;;;;;5062453;28;20195;-84
2023/01/04 01:30:58;;;;;;;8.30;2.80;;;6.80;99.90;;;;;;5066802;28;20226;-84
2023/01/04 01:33:26;;;;;;;5.17;3.07;;;6.90;99.90;;;;;;5076414;28;20223;-84
2023/01/04 01:35:53;;;;;;;5.30;2.80;;;6.90;99.90;;;;;;5066932;28;20210;-84
2023/01/04 01:38:20;;;;;;;7.53;2.70;;;6.90;99.90;;;;;;5082324;28;20293;-84
2023/01/04 01:40:47;;;;;;;5.57;2.37;;;6.90;99.90;;;;;;5067174;28;20206;-85
2023/01/04 01:43:19;;;;;;;7.00;2.83;;;6.90;99.90;;;;;;5078002;28;20237;-84
2023/01/04 01:45:49;;;;;;;5.90;2.40;;;6.80;99.90;;;;;;5060858;28;20234;-84
2023/01/04 01:48:21;;;;;;;7.93;3.30;;;6.80;99.90;;;;;;5072741;28;20205;-84
2023/01/04 01:50:53;;;;;;;5.43;2.70;;;6.70;99.90;;;;;;5081722;28;20297;-84
2023/01/04 01:53:21;;;;;;;6.23;2.83;;;6.80;99.90;;;;;;5068144;28;20223;-84
2023/01/04 01:55:49;;;;;;;5.97;2.77;;;6.90;99.90;;;;;;5069880;28;20281;-84
2023/01/04 01:58:23;;;;;;;5.90;2.53;;;6.80;99.90;;;;;;5067984;28;20677;-84
2023/01/04 02:00:49;;;;;;;5.70;2.60;;;6.80;99.90;;;;;;5079080;28;20209;-84
2023/01/04 02:03:19;;;;;;;6.30;2.70;;;6.90;99.90;;;;;;5076629;28;20219;-84
2023/01/04 02:05:51;;;;;;;4.63;2.50;;;6.90;99.90;;;;;;5067570;28;20202;-84
2023/01/04 02:08:21;;;;;;;7.37;3.03;;;6.90;99.90;;;;;;5080836;28;20616;-84
2023/01/04 02:10:48;;;;;;;4.50;2.40;;;6.80;99.90;;;;;;5066240;28;20199;-84
2023/01/04 02:13:18;;;;;;;4.60;2.93;;;6.90;99.90;;;;;;5066411;28;20696;-84
2023/01/04 02:15:57;;;;;;;10.73;3.60;;;7.00;99.90;;;;;;5085958;28;20872;-84
2023/01/04 02:18:32;;;;;;;5.43;2.73;;;6.90;99.90;;;;;;5084777;28;20225;-84
2023/01/04 02:21:06;;;;;;;4.60;2.17;;;7.00;99.90;;;;;;5084445;28;20202;-84
2023/01/04 02:24:04;;;;;;;6.67;2.77;;;7.00;99.90;;;;;;5065944;28;20219;-84
2023/01/04 02:27:11;;;;;;;4.37;2.30;;;7.10;99.90;;;;;;5066269;28;20210;-84
2023/01/04 02:30:08;;;;;;;4.63;2.50;;;7.10;99.90;;;;;;5057717;28;20548;-84
2023/01/04 02:32:53;;;;;;;8.70;2.80;;;7.20;99.90;;;;;;5064452;28;20779;-84
2023/01/04 02:35:25;;;;;;;3.53;2.43;;;7.20;99.90;;;;;;5064566;28;20199;-85
2023/01/04 02:38:02;;;;;;;5.33;3.17;;;7.10;99.90;;;;;;5064789;28;20198;-84
2023/01/04 02:40:38;;;;;;;4.50;2.43;;;7.20;99.90;;;;;;5068938;28;20190;-84
2023/01/04 02:46:01;;;;;;;3.67;2.47;;;7.20;99.90;;;;;;5065684;28;20202;-84
2023/01/04 02:51:28;;;;;;;7.10;2.80;;;7.30;99.90;;;;;;5084490;28;20225;-84
2023/01/04 02:53:56;;;;;;;7.67;2.90;;;7.40;99.90;;;;;;5080917;28;20212;-84
2023/01/04 02:56:35;;;;;;;5.20;2.83;;;7.40;99.90;;;;;;5065321;28;20592;-84
2023/01/04 02:59:14;;;;;;;4.73;2.90;;;7.50;99.90;;;;;;5064586;28;20260;-84
2023/01/04 03:07:37;;;;;;;4.97;2.50;;;7.60;99.90;;;;;;5071244;28;20744;-84
2023/01/04 03:10:08;;;;;;;6.20;3.03;;;7.60;99.90;;;;;;5077152;28;20206;-84
2023/01/04 03:12:40;;;;;;;5.50;2.90;;;7.60;99.90;;;;;;5066642;28;20757;-84
2023/01/04 03:15:13;;;;;;;7.87;3.40;;;7.70;99.90;;;;;;5084783;28;20190;-84
2023/01/04 03:17:45;;;;;;;5.43;2.40;;;7.70;99.90;;;;;;5073612;28;20206;-84
2023/01/04 03:20:15;;;;;;;4.00;2.80;;;7.70;99.90;;;;;;5064016;28;20203;-84
2023/01/04 03:36:58;;;;;;;7.90;3.93;;;7.90;99.90;;;;;;5081841;28;20271;-84
2023/01/04 03:48:30;;;;;;;7.13;2.77;;;8.10;99.90;;;;;;5061665;28;20287;-85
2023/01/04 03:51:04;;;;;;;3.73;2.60;;;8.10;99.90;;;;;;5060461;28;20203;-84
2023/01/04 03:53:35;;;;;;;5.80;2.63;;;8.00;99.90;;;;;;5065771;28;20230;-85
2023/01/04 03:56:03;;;;;;;4.70;2.50;;;8.00;99.90;;;;;;5072280;28;20194;-84
2023/01/04 03:58:30;;;;;;;7.30;2.67;;;7.90;99.90;;;;;;5081561;28;20202;-85
2023/01/04 04:01:02;;;;;;;8.33;3.37;;;7.90;99.90;;;;;;5063428;28;20613;-84
2023/01/04 04:08:59;;;;;;;5.17;2.63;;;8.00;99.90;;;;;;5080979;28;20581;-84
2023/01/04 04:11:32;;;;;;;4.33;2.33;;;8.00;99.90;;;;;;5079824;28;20663;-84
2023/01/04 04:14:00;;;;;;;4.00;2.53;;;8.00;99.90;;;;;;5075999;28;20248;-83
2023/01/04 04:16:28;;;;;;;5.17;2.20;;;8.00;99.90;;;;;;5078665;28;20210;-84
2023/01/04 04:18:55;;;;;;;4.13;2.10;;;8.10;99.90;;;;;;5073896;28;20202;-84
2023/01/04 04:21:22;;;;;;;5.67;2.50;;;8.00;99.90;;;;;;5080188;28;20202;-83
2023/01/04 04:23:49;;;;;;;4.53;2.60;;;7.90;99.90;;;;;;5074539;28;20288;-84
2023/01/04 04:26:17;;;;;;;4.17;2.23;;;7.90;99.90;;;;;;5077583;28;20524;-83
2023/01/04 04:28:44;;;;;;;6.40;2.40;;;7.90;99.90;;;;;;5078188;28;20623;-83
2023/01/04 04:31:11;;;;;;;6.43;2.87;;;7.90;99.90;;;;;;5079075;28;20218;-83
2023/01/04 04:33:38;;;;;;;4.27;2.63;;;7.90;99.90;;;;;;5069029;28;20232;-83
2023/01/04 04:36:08;;;;;;;4.43;2.37;;;7.90;99.90;;;;;;5060492;28;20556;-82
2023/01/04 04:38:35;;;;;;;4.13;2.40;;;8.00;99.90;;;;;;5064529;28;20226;-83
2023/01/04 04:43:54;;;;;;;5.93;2.20;;;7.90;99.90;;;;;;5064689;28;20248;-83
2023/01/04 04:46:22;;;;;;;13.27;4.13;;;8.00;99.90;;;;;;5063594;28;20293;-83
2023/01/04 04:48:49;;;;;;;5.20;2.40;;;7.90;99.90;;;;;;5064575;28;20230;-84
2023/01/04 04:51:16;;;;;;;5.93;2.70;;;7.90;99.90;;;;;;5064207;28;20230;-83
2023/01/04 04:53:43;;;;;;;6.87;2.33;;;7.90;99.90;;;;;;5063635;28;20234;-83
2023/01/04 04:56:10;;;;;;;4.10;2.23;;;7.90;99.90;;;;;;5063553;28;20278;-83
2023/01/04 04:58:38;;;;;;;5.33;2.77;;;7.90;99.90;;;;;;5064323;28;20292;-83
2023/01/04 05:01:07;;;;;;;4.50;2.30;;;8.10;99.90;;;;;;5062717;28;20781;-83
2023/01/04 05:03:34;;;;;;;8.67;2.80;;;8.00;99.90;;;;;;5070600;28;20285;-83
2023/01/04 05:06:02;;;;;;;2.47;1.97;;;7.90;99.90;;;;;;5084153;28;20266;-83
2023/01/04 05:08:28;;;;;;;3.43;2.50;;;8.00;99.90;;;;;;5080974;28;20292;-83
2023/01/04 05:10:55;;;;;;;5.50;2.53;;;8.10;99.90;;;;;;5081122;28;20210;-83
2023/01/04 05:13:21;;;;;;;6.77;2.40;;;8.00;99.90;;;;;;5067061;28;20250;-83
2023/01/04 05:15:51;;;;;;;4.23;2.63;;;8.00;99.90;;;;;;5062934;28;20215;-83
2023/01/04 05:18:21;;;;;;;4.20;2.97;;;8.10;99.90;;;;;;5062790;28;20218;-83
2023/01/04 05:20:48;;;;;;;4.10;2.53;;;8.10;99.90;;;;;;5064036;28;20270;-82
2023/01/04 05:23:17;;;;;;;6.27;2.93;;;8.20;99.90;;;;;;5063495;28;20226;-83
2023/01/04 05:25:44;;;;;;;4.97;2.80;;;8.20;99.90;;;;;;5063174;28;20205;-83
2023/01/04 05:28:11;;;;;;;4.63;2.13;;;8.30;99.90;;;;;;5061612;28;20271;-83
2023/01/04 05:30:52;;;;;;;4.37;2.30;;;8.20;99.90;;;;;;5063200;28;20199;-83
2023/01/04 05:33:22;;;;;;;3.67;2.20;;;8.20;99.90;;;;;;5062504;28;20223;-83
2023/01/04 05:35:50;;;;;;;4.27;2.27;;;8.20;99.90;;;;;;5063141;28;20213;-83
2023/01/04 05:38:17;;;;;;;3.07;2.30;;;8.30;99.90;;;;;;5061414;28;20210;-83
2023/01/04 05:40:44;;;;;;;3.93;2.10;;;8.30;99.90;;;;;;5062904;28;20203;-83
2023/01/04 05:43:13;;;;;;;6.43;2.43;;;8.30;99.90;;;;;;5065353;28;20314;-83
2023/01/04 05:45:40;;;;;;;3.90;2.23;;;8.30;99.90;;;;;;5065704;28;20221;-83
2023/01/04 05:48:07;;;;;;;4.30;2.27;;;8.30;99.90;;;;;;5066057;28;20207;-83
2023/01/04 05:50:36;;;;;;;4.80;2.03;;;8.30;99.90;;;;;;5068029;28;20270;-83
2023/01/04 05:53:03;;;;;;;3.30;1.90;;;8.40;99.90;;;;;;5075776;28;20242;-83
2023/01/04 05:55:31;;;;;;;3.17;2.40;;;8.30;99.90;;;;;;5089302;28;20198;-83
2023/01/04 05:57:58;;;;;;;3.07;2.20;;;8.30;99.90;;;;;;5085780;28;20217;-83
2023/01/04 06:00:26;;;;;;;2.60;1.80;;;8.30;99.90;;;;;;5085966;28;20273;-83
2023/01/04 06:02:54;;;;;;;2.20;2.00;;;8.30;99.90;;;;;;5085201;28;20619;-83
2023/01/04 06:05:22;;;;;;;3.87;2.13;;;8.30;99.90;;;;;;5085890;28;20569;-83
2023/01/04 06:07:50;;;;;;;2.60;1.77;;;8.40;99.90;;;;;;5082078;28;20689;-84
2023/01/04 06:10:20;;;;;;;3.27;1.67;;;8.40;99.90;;;;;;5087634;28;20267;-83
2023/01/04 06:12:48;;;;;;;4.10;1.63;;;8.40;99.90;;;;;;5086167;28;20242;-83
2023/01/04 06:15:15;;;;;;;2.47;1.80;;;8.40;99.90;;;;;;5085028;28;20194;-84
2023/01/04 06:17:42;;;;;;;3.80;1.93;;;8.50;99.90;;;;;;5085108;28;20202;-83
2023/01/04 06:20:11;;;;;;;4.93;2.07;;;8.40;99.90;;;;;;5085380;28;20262;-83
2023/01/04 06:22:39;;;;;;;3.20;1.70;;;8.30;99.90;;;;;;5085421;28;20226;-83
2023/01/04 06:25:13;;;;;;;5.00;2.00;;;8.40;99.90;;;;;;5086385;28;20206;-82
2023/01/04 06:27:40;;;;;;;3.37;2.10;;;8.40;99.90;;;;;;5085394;28;20552;-83
2023/01/04 06:30:08;;;;;;;2.33;1.53;;;8.50;99.90;;;;;;5087522;28;20237;-83
2023/01/04 06:32:36;;;;;;;2.73;1.43;;;8.50;99.90;;;;;;5086265;28;20242;-83
2023/01/04 06:35:04;;;;;;;3.60;1.60;;;8.60;99.90;;;;;;5087933;28;20209;-83
2023/01/04 06:37:31;;;;;;;2.87;1.53;;;8.60;99.90;;;;;;5086189;28;20206;-84
2023/01/04 06:39:58;;;;;;;3.10;2.07;;;8.60;99.90;;;;;;5086711;28;20204;-83
2023/01/04 06:42:44;;;;;;;2.13;1.63;;;8.60;99.90;;;;;;5085874;28;20230;-83
2023/01/04 06:45:12;;;;;;;2.80;1.60;;;8.60;99.90;;;;;;5087197;28;20293;-83
2023/01/04 06:47:40;;;;;;;3.03;1.80;;;8.70;99.90;;;;;;5078032;28;20203;-83
2023/01/04 06:50:08;;;;;;;3.87;2.10;;;8.70;99.90;;;;;;5064128;28;20207;-83
2023/01/04 06:52:35;;;;;;;3.97;1.60;;;8.70;99.90;;;;;;5063241;28;20233;-84
2023/01/04 06:55:02;;;;;;;1.70;1.60;;;8.70;99.90;;;;;;5066591;28;20246;-83
2023/01/04 06:57:31;;;;;;;2.93;1.70;;;8.80;99.90;;;;;;5066614;28;20209;-83
2023/01/04 06:59:58;;;;;;;1.97;1.40;;;8.80;99.90;;;;;;5067105;28;20210;-83
2023/01/04 07:02:25;;;;;;;2.93;1.80;;;8.80;99.90;;;;;;5068463;28;20223;-83
2023/01/04 07:04:52;;;;;;;1.90;1.57;;;8.80;99.90;;;;;;5067338;28;20195;-83
2023/01/04 07:07:19;;;;;;;1.97;1.40;;;8.80;99.90;;;;;;5069473;28;20304;-83
2023/01/04 07:09:45;;;;;;;2.77;1.60;;;8.80;99.90;;;;;;5085472;28;20293;-83
2023/01/04 07:12:12;;;;;;;2.97;1.50;;;8.80;99.90;;;;;;5084603;28;20232;-83
2023/01/04 07:14:41;;;;;;;1.50;1.40;;;8.90;99.90;;;;;;5086657;28;20198;-84
2023/01/04 07:17:08;;;;;;;1.93;1.63;;;8.90;99.90;;;;;;5084883;28;20225;-83
2023/01/04 07:19:35;;;;;;;1.93;1.47;;;9.00;99.90;;;;;;5068338;28;20211;-83
2023/01/04 07:22:02;;;;;;;3.50;1.60;;;9.00;99.90;;;;;;5066017;28;20703;-84
2023/01/04 07:24:29;;;;;;;2.47;1.80;;;9.10;99.90;;;;;;5081715;28;20202;-83
2023/01/04 07:26:56;;;;;;;2.47;2.03;;;8.90;99.90;;;;;;5086108;28;20230;-84
2023/01/04 07:29:23;;;;;;;2.63;1.57;;;9.00;99.90;;;;;;5082386;28;20206;-82
2023/01/04 07:31:52;;;;;;;4.03;1.87;;;8.90;99.90;;;;;;5066320;28;20223;-83
2023/01/04 07:34:20;;;;;;;1.87;1.63;;;9.00;99.90;;;;;;5065440;28;20234;-84
2023/01/04 07:36:48;;;;;;;2.73;1.80;;;9.00;99.90;;;;;;5063463;28;20686;-83
2023/01/04 07:39:15;;;;;;;2.03;1.33;;;9.10;99.90;;;;;;5065713;28;20294;-83
2023/01/04 07:41:42;;;;;;;1.70;1.60;;;9.10;99.90;;;;;;5064887;28;20237;-83
2023/01/04 07:44:10;;;;;;;1.73;1.23;;;9.10;99.90;;;;;;5066601;28;20253;-82
2023/01/04 07:46:39;;;;;;;4.73;1.57;;;9.10;99.90;;;;;;5077893;28;20266;-82
2023/01/04 07:49:07;;;;;;;1.20;1.10;;;9.10;99.90;;;;;;5084623;28;20584;-83
2023/01/04 07:51:34;;;;;;;2.27;1.53;;;9.10;99.90;;;;;;5085580;28;20266;-84
2023/01/04 07:54:01;;;;;;;1.63;1.33;;;9.00;99.90;;;;;;5084470;28;20707;-84
2023/01/04 07:56:27;;;;;;;3.10;2.00;;;9.10;99.90;;;;;;5084066;28;20269;-84
2023/01/04 07:58:56;;;;;;;1.40;1.30;;;9.20;99.90;;;;;;5084411;28;20240;-83
2023/01/04 08:01:25;;;;;;;2.00;1.80;;;9.20;99.90;;;;;;5084669;28;20197;-83
2023/01/04 08:03:52;;;;;;;1.90;1.60;;;9.10;99.90;;;;;;5084130;28;20217;-83
2023/01/04 08:06:22;;;;;;;2.17;1.40;;;9.10;99.90;;;;;;5084919;28;20218;-83
2023/01/04 08:08:49;;;;;;;1.63;1.40;;;9.10;99.90;;;;;;5077100;28;20198;-83
2023/01/04 08:11:18;;;;;;;2.23;1.17;;;9.20;99.90;;;;;;5084935;28;20288;-85
2023/01/04 08:13:45;;;;;;;3.00;1.10;;;9.20;99.90;;;;;;5082856;28;20232;-83
2023/01/04 08:16:21;;;;;;;2.93;1.33;;;9.20;99.90;;;;;;5084763;28;20202;-83
2023/01/04 08:18:48;;;;;;;3.00;1.37;;;9.20;99.90;;;;;;5085329;28;20217;-84
2023/01/04 08:21:15;;;;;;;2.77;1.57;;;9.30;99.90;;;;;;5085095;28;20202;-83
2023/01/04 08:23:43;;;;;;;1.53;1.23;;;9.30;99.90;;;;;;5078029;28;20218;-85
2023/01/04 08:26:12;;;;;;;1.07;1.00;;;9.30;99.90;;;;;;5083919;28;20222;-83
2023/01/04 08:28:40;;;;;;;1.47;1.37;;;9.30;99.90;;;;;;5085925;28;20242;-83
2023/01/04 08:31:08;;;;;;;1.83;1.20;;;9.30;99.90;;;;;;5086517;28;20236;-84
2023/01/04 08:33:36;;;;;;;2.33;1.33;;;9.30;99.90;;;;;;5085138;28;20754;-83
2023/01/04 08:36:11;;;;;;;3.57;1.30;;;9.30;99.90;;;;;;5084709;28;20273;-83
2023/01/04 08:38:39;;;;;;;3.17;1.77;;;9.30;99.90;;;;;;5068933;28;20225;-83
2023/01/04 08:41:08;;;;;;;6.03;1.53;;;9.30;99.90;;;;;;5064303;28;20211;-83
2023/01/04 08:43:36;;;;;;;1.60;1.40;;;9.40;99.90;;;;;;5064905;28;20222;-83
2023/01/04 08:46:04;;;;;;;2.93;1.40;;;9.40;99.90;;;;;;5064411;28;20195;-83
2023/01/04 08:48:31;;;;;;;2.07;1.57;;;9.30;99.90;;;;;;5063362;28;20215;-83
2023/01/04 08:50:59;;;;;;;0.97;0.90;;;9.30;99.90;;;;;;5064509;28;20587;-84
2023/01/04 08:53:26;;;;;;;1.00;1.00;;;9.30;99.90;;;;;;5061591;28;20231;-83
2023/01/04 08:55:53;;;;;;;2.93;1.20;;;9.30;99.90;;;;;;5064988;28;20697;-83
2023/01/04 08:58:22;;;;;;;1.10;0.87;;;9.30;99.90;;;;;;5083671;28;20205;-83
2023/01/04 09:00:50;;;;;;;2.70;0.93;;;9.30;99.90;;;;;;5063608;28;20233;-84
2023/01/04 09:03:17;;;;;;;2.43;1.20;;;9.40;99.90;;;;;;5062336;28;20219;-83
2023/01/04 09:05:46;;;;;;;2.30;1.43;;;9.30;99.90;;;;;;5063687;28;20237;-83
2023/01/04 09:08:13;;;;;;;1.67;1.20;;;9.30;99.90;;;;;;5084513;28;20203;-83
2023/01/04 09:10:41;;;;;;;1.53;1.10;;;9.20;99.90;;;;;;5082433;28;20208;-83
2023/01/04 09:13:08;;;;;;;2.30;1.30;;;9.20;99.90;;;;;;5082925;28;20226;-83
2023/01/04 09:15:36;;;;;;;2.23;1.40;;;9.10;99.90;;;;;;5089299;28;20222;-83
2023/01/04 09:18:04;;;;;;;4.60;1.50;;;9.10;99.90;;;;;;5096274;28;20237;-82
2023/01/04 09:20:31;;;;;;;1.77;1.50;;;9.00;99.90;;;;;;5088690;28;20198;-82
2023/01/04 09:23:00;;;;;;;3.03;1.27;;;8.90;99.90;;;;;;5089701;28;20694;-83
2023/01/04 09:25:28;;;;;;;4.37;1.60;;;9.00;99.90;;;;;;5090483;28;20206;-83
2023/01/04 09:27:57;;;;;;;3.73;1.70;;;8.90;99.90;;;;;;5088533;28;20289;-83
2023/01/04 09:30:23;;;;;;;1.30;0.93;;;9.00;99.90;;;;;;5090068;28;20214;-83
2023/01/04 09:32:51;;;;;;;2.60;1.27;;;9.00;99.90;;;;;;5087262;28;20286;-83
2023/01/04 09:35:18;;;;;;;1.50;1.40;;;9.00;99.90;;;;;;5088167;28;20274;-83
2023/01/04 09:37:45;;;;;;;1.70;1.10;;;9.10;99.90;;;;;;5088881;28;20265;-83
2023/01/04 09:40:20;;;;;;;1.47;1.10;;;9.10;99.90;;;;;;5088293;28;20265;-83
2023/01/04 09:42:47;;;;;;;1.60;1.50;;;9.10;99.90;;;;;;5088467;28;20225;-83
2023/01/04 09:45:19;;;;;;;1.53;1.20;;;9.20;99.90;;;;;;5087982;28;20614;-83
2023/01/04 09:47:55;;;;;;;1.30;1.00;;;9.20;99.90;;;;;;5087744;28;20575;-83
2023/01/04 09:50:25;;;;;;;2.00;1.10;;;9.30;99.90;;;;;;5088209;28;20205;-84
2023/01/04 09:53:01;;;;;;;1.10;1.00;;;9.30;99.90;;;;;;5088363;28;20232;-83
2023/01/04 09:55:32;;;;;;;1.00;1.00;;;9.40;99.90;;;;;;5088446;28;20206;-83
2023/01/04 09:58:03;;;;;;;1.40;0.70;;;9.50;99.90;;;;;;5087344;28;20216;-83
2023/01/04 10:00:35;;;;;;;1.30;1.20;;;9.50;99.90;;;;;;5087363;28;20217;-82
2023/01/04 10:03:10;;;;;;;2.57;1.27;;;9.50;99.90;;;;;;5086998;28;20218;-83
2023/01/04 10:05:37;;;;;;;0.90;0.90;;;9.60;99.90;;;;;;5088664;28;20222;-83
2023/01/04 10:08:12;;;;;;;0.67;0.60;;;9.60;99.90;;;;;;5087716;28;20233;-83
2023/01/04 10:10:49;;;;;;;0.90;0.90;;;9.70;99.90;;;;;;5087999;28;20284;-84
2023/01/04 10:13:31;;;;;;;0.80;0.80;;;9.60;99.90;;;;;;5088437;28;20220;-83
2023/01/04 10:16:09;;;;;;;1.50;1.20;;;9.70;99.90;;;;;;5088920;28;20238;-84
2023/01/04 10:18:46;;;;;;;1.20;1.07;;;9.70;99.90;;;;;;5087464;28;20244;-84
2023/01/04 10:21:33;;;;;;;1.17;0.90;;;9.80;99.90;;;;;;5087537;28;20269;-84
2023/01/04 10:24:29;;;;;;;1.03;0.93;;;9.80;99.90;;;;;;5088482;28;20285;-83
2023/01/04 10:27:00;;;;;;;1.47;1.07;;;9.80;99.90;;;;;;5083761;28;20210;-84
2023/01/04 10:29:40;;;;;;;0.67;0.53;;;9.80;99.90;;;;;;5088651;28;20198;-83
2023/01/04 10:32:17;;;;;;;0.90;0.80;;;9.80;99.90;;;;;;5087584;28;20228;-82
2023/01/04 10:34:47;;;;;;;0.67;0.67;;;9.80;99.90;;;;;;5088508;28;20233;-82
2023/01/04 10:37:19;;;;;;;2.27;1.00;;;9.80;99.90;;;;;;5088869;28;20209;-83
2023/01/04 10:39:50;;;;;;;1.10;0.90;;;9.80;99.90;;;;;;5088007;28;20191;-83
2023/01/04 10:42:20;;;;;;;1.00;0.90;;;9.80;99.90;;;;;;5088510;28;20308;-83
2023/01/04 10:45:07;;;;;;;1.30;0.90;;;9.70;99.90;;;;;;5088407;28;20269;-83
2023/01/04 10:47:39;;;;;;;1.47;0.70;;;9.70;99.90;;;;;;5087508;28;20270;-83
2023/01/04 10:50:16;;;;;;;1.07;1.00;;;9.70;99.90;;;;;;5086599;28;20345;-83
2023/01/04 10:52:48;;;;;;;1.90;1.23;;;9.70;99.90;;;;;;5086566;28;20218;-83
2023/01/04 10:55:21;;;;;;;1.20;1.10;;;9.70;99.90;;;;;;5086060;28;20577;-83
2023/01/04 10:57:53;;;;;;;1.20;0.87;;;9.60;99.90;;;;;;5088438;28;20187;-85
2023/01/04 11:00:24;;;;;;;2.33;0.90;;;9.60;99.90;;;;;;5087882;28;20561;-83
2023/01/04 11:02:58;;;;;;;1.37;1.00;;;9.60;99.90;;;;;;5086158;28;20245;-83
2023/01/04 11:05:31;;;;;;;2.40;1.13;;;9.50;99.90;;;;;;5086287;28;20585;-83
2023/01/04 11:08:03;;;;;;;1.87;0.73;;;9.50;99.90;;;;;;5086788;28;20307;-83
2023/01/04 11:10:35;;;;;;;1.90;0.83;;;9.50;99.90;;;;;;5086866;28;20218;-83
2023/01/04 11:13:03;;;;;;;1.60;1.10;;;9.60;99.90;;;;;;5087828;28;20218;-83
2023/01/04 11:15:30;;;;;;;1.00;0.90;;;9.60;99.90;;;;;;5086873;28;20241;-83
2023/01/04 11:18:00;;;;;;;1.43;0.90;;;9.80;99.90;;;;;;5086857;28;20236;-83
2023/01/04 11:20:30;;;;;;;0.80;0.80;;;9.80;99.90;;;;;;5086992;28;20202;-83
2023/01/04 11:23:02;;;;;;;0.70;0.70;;;9.80;99.90;;;;;;5086249;28;20710;-84
2023/01/04 11:25:35;;;;;;;1.33;0.97;;;9.90;99.90;;;;;;5086596;28;20210;-83
2023/01/04 11:28:12;;;;;;;1.10;0.80;;;9.80;99.90;;;;;;5086575;28;20206;-84
2023/01/04 11:30:50;;;;;;;1.33;1.03;;;9.80;99.90;;;;;;5087902;28;20217;-83
2023/01/04 11:33:19;;;;;;;0.67;0.67;;;9.80;99.90;;;;;;5086390;28;20352;-83
2023/01/04 11:35:49;;;;;;;0.83;0.60;;;9.90;99.90;;;;;;5086176;28;20270;-85
2023/01/04 11:38:18;;;;;;;0.60;0.60;;;9.90;99.90;;;;;;5086511;28;20262;-84
2023/01/04 11:40:57;;;;;;;0.47;0.43;;;9.90;99.90;;;;;;5087092;28;20222;-84
2023/01/04 11:43:25;;;;;;;0.67;0.67;;;9.90;99.90;;;;;;5086577;28;20713;-84
2023/01/04 11:46:06;;;;;;;0.80;0.60;;;9.80;99.90;;;;;;5087344;28;20211;-84
2023/01/04 11:48:39;;;;;;;0.60;0.60;;;9.80;99.90;;;;;;5085126;28;20245;-84
2023/01/04 11:51:18;;;;;;;0.80;0.77;;;9.80;99.90;;;;;;5085952;28;20258;-84
2023/01/04 11:53:46;;;;;;;1.90;0.70;;;9.80;99.90;;;;;;5085537;28;20230;-83
2023/01/04 11:56:20;;;;;;;1.23;0.60;;;9.80;99.90;;;;;;5086834;28;20210;-84
2023/01/04 11:59:09;;;;;;;0.47;0.47;;;9.80;99.90;;;;;;5086433;28;20240;-84
2023/01/04 12:01:39;;;;;;;0.40;0.33;;;9.80;99.90;;;;;;5086253;28;20289;-84
2023/01/04 12:04:11;;;;;;;1.37;0.67;;;9.80;99.90;;;;;;5085286;28;20202;-85
2023/01/04 12:06:46;;;;;;;0.60;0.53;;;9.90;99.90;;;;;;5087508;28;20257;-85
2023/01/04 12:09:15;;;;;;;0.60;0.60;;;9.90;99.90;;;;;;5085505;28;20202;-84
2023/01/04 12:11:46;;;;;;;0.50;0.50;;;9.90;99.90;;;;;;5086462;28;20252;-85
2023/01/04 12:14:24;;;;;;;0.60;0.60;;;9.90;99.90;;;;;;5087029;28;20275;-84
2023/01/04 12:17:00;;;;;;;0.40;0.40;;;9.90;99.90;;;;;;5087321;28;20248;-84
2023/01/04 12:19:27;;;;;;;0.57;0.53;;;9.90;99.90;;;;;;5087013;28;20241;-84
2023/01/04 12:21:58;;;;;;;0.60;0.60;;;9.90;99.90;;;;;;5085977;28;20225;-84
2023/01/04 12:24:28;;;;;;;0.87;0.73;;;9.90;99.90;;;;;;5087946;28;20297;-83
2023/01/04 12:26:55;;;;;;;1.13;0.70;;;10.00;99.90;;;;;;5086960;28;20269;-83
2023/01/04 12:29:52;;;;;;;0.80;0.60;;;10.00;99.90;;;;;;5087133;28;20213;-84
2023/01/04 12:32:41;;;;;;;0.50;0.50;;;10.10;99.90;;;;;;5085576;28;20246;-85
2023/01/04 12:35:42;;;;;;;1.20;0.20;;;10.10;99.90;;;;;;5082554;28;20227;-84
2023/01/04 12:38:11;;;;;;;0.50;0.50;;;10.10;99.90;;;;;;5088904;28;20224;-83
2023/01/04 12:40:54;;;;;;;0.67;0.50;;;10.20;99.90;;;;;;5085415;28;20639;-83
2023/01/04 12:43:25;;;;;;;0.50;0.50;;;10.20;99.90;;;;;;5087952;28;20240;-83
2023/01/04 12:49:49;;;;;;;0.57;0.57;;;10.20;99.90;;;;;;5081893;28;20198;-84
2023/01/04 12:52:43;;;;;;;0.23;0.23;;;10.30;99.90;;;;;;5085973;28;20418;-83
2023/01/04 12:55:44;;;;;;;0.37;0.37;;;10.30;99.90;;;;;;5088243;28;20249;-83
2023/01/04 12:58:41;;;;;;;0.23;0.23;;;10.30;99.90;;;;;;5072954;28;20222;-84
2023/01/04 13:01:26;;;;;;;0.63;0.60;;;10.40;99.90;;;;;;5072557;28;20185;-84
2023/01/04 13:03:59;;;;;;;0.47;0.40;;;10.40;99.90;;;;;;5086403;28;20201;-82
2023/01/04 13:06:31;;;;;;;0.50;0.40;;;10.40;99.90;;;;;;5087296;28;20218;-83
2023/01/04 13:08:58;;;;;;;0.27;0.27;;;10.40;99.90;;;;;;5087231;28;20251;-84
2023/01/04 13:11:49;;;;;;;0.20;0.17;;;10.40;99.90;;;;;;5089310;28;20229;-84
2023/01/04 13:14:26;;;;;;;0.53;0.40;;;10.40;99.90;;;;;;5085697;28;20254;-84
2023/01/04 13:17:20;;;;;;;0.53;0.53;;;10.50;99.90;;;;;;5080428;28;20206;-84
2023/01/04 13:19:48;;;;;;;0.83;0.83;;;10.60;99.90;;;;;;5082220;28;20209;-83
2023/01/04 13:22:22;;;;;;;2.40;0.70;;;10.60;99.90;;;;;;5084128;28;20224;-83
2023/01/04 13:24:50;;;;;;;1.37;0.87;;;10.60;99.90;;;;;;5079633;28;20253;-82
2023/01/04 13:27:20;;;;;;;0.70;0.70;;;10.50;99.90;;;;;;5090358;28;20212;-83
2023/01/04 13:29:48;;;;;;;1.47;1.30;;;10.50;99.90;;;;;;5088278;28;20226;-83
2023/01/04 13:32:27;;;;;;;2.80;0.80;;;10.50;99.90;;;;;;5097867;28;20229;-83
2023/01/04 13:35:01;;;;;;;2.23;1.13;;;10.60;99.90;;;;;;5078873;28;20579;-82
2023/01/04 13:37:32;;;;;;;2.20;1.20;;;10.60;99.90;;;;;;5073312;28;20298;-81
2023/01/04 13:40:23;;;;;;;1.23;0.97;;;10.70;99.90;;;;;;5087447;28;20209;-81
2023/01/04 13:43:01;;;;;;;2.40;1.47;;;10.70;99.90;;;;;;5073473;28;20230;-81
2023/01/04 13:45:58;;;;;;;2.47;1.30;;;10.70;99.90;;;;;;5071828;28;20195;-82
2023/01/04 13:48:26;;;;;;;2.03;1.07;;;10.80;99.90;;;;;;5079505;28;20228;-81
2023/01/04 13:51:01;;;;;;;3.10;1.50;;;10.80;99.90;;;;;;5075674;28;20204;-81
2023/01/04 13:53:30;;;;;;;2.40;1.40;;;10.90;99.90;;;;;;5080779;28;20255;-82
2023/01/04 13:56:00;;;;;;;1.90;1.60;;;10.80;99.90;;;;;;5088984;28;20288;-81
2023/01/04 13:58:30;;;;;;;2.77;1.33;;;10.80;99.90;;;;;;5084113;28;20226;-81
2023/01/04 14:01:01;;;;;;;1.20;1.00;;;10.90;99.90;;;;;;5085729;28;20557;-82
2023/01/04 14:03:35;;;;;;;2.67;1.23;;;10.90;99.90;;;;;;5092211;28;20218;-81